sensor_id;sensor_type;location;lat;lon;timestamp;temperature;humidity
72814;DHT22;60945;48.516;-2.768;2022-10-18T00:01:02;13.60;99.90
72814;DHT22;60945;48.516;-2.768;2022-10-18T00:03:28;13.70;99.90
72814;DHT22;60945;48.516;-2.768;2022-10-18T00:05:53;13.70;99.90
72814;DHT22;60945;48.516;-2.768;2022-10-18T00:08:19;13.60;99.90
72814;DHT22;60945;48.516;-2.768;2022-10-18T00:10:45;13.50;99.90
72814;DHT22;60945;48.516;-2.768;2022-10-18T00:13:11;13.50;99.90
72814;DHT22;60945;48.516;-2.768;2022-10-18T00:15:37;13.30;99.90
72814;DHT22;60945;48.516;-2.768;2022-10-18T00:18:03;13.30;99.90
72814;DHT22;60945;48.516;-2.768;2022-10-18T00:20:29;13.40;99.90
72814;DHT22;60945;48.516;-2.768;2022-10-18T00:22:55;13.40;99.90
72814;DHT22;60945;48.516;-2.768;2022-10-18T00:25:21;13.40;99.90
72814;DHT22;60945;48.516;-2.768;2022-10-18T00:27:46;13.30;99.90
72814;DHT22;60945;48.516;-2.768;2022-10-18T00:30:12;13.30;99.90
72814;DHT22;60945;48.516;-2.768;2022-10-18T00:32:39;13.30;99.90
72814;DHT22;60945;48.516;-2.768;2022-10-18T00:35:05;13.20;99.90
72814;DHT22;60945;48.516;-2.768;2022-10-18T00:37:32;13.20;99.90
72814;DHT22;60945;48.516;-2.768;2022-10-18T00:39:58;13.20;99.90
72814;DHT22;60945;48.516;-2.768;2022-10-18T00:42:28;13.10;99.90
72814;DHT22;60945;48.516;-2.768;2022-10-18T00:45:01;13.00;99.90
72814;DHT22;60945;48.516;-2.768;2022-10-18T00:47:27;13.00;99.90
72814;DHT22;60945;48.516;-2.768;2022-10-18T00:49:54;13.00;99.90
72814;DHT22;60945;48.516;-2.768;2022-10-18T00:52:25;12.90;99.90
72814;DHT22;60945;48.516;-2.768;2022-10-18T00:54:51;12.80;99.90
72814;DHT22;60945;48.516;-2.768;2022-10-18T00:57:17;12.80;99.90
72814;DHT22;60945;48.516;-2.768;2022-10-18T00:59:43;12.80;99.90
72814;DHT22;60945;48.516;-2.768;2022-10-18T01:02:10;12.80;99.90
72814;DHT22;60945;48.516;-2.768;2022-10-18T01:04:39;12.80;99.90
72814;DHT22;60945;48.516;-2.768;2022-10-18T01:09:56;12.60;99.90
72814;DHT22;60945;48.516;-2.768;2022-10-18T01:18:15;12.60;99.90
72814;DHT22;60945;48.516;-2.768;2022-10-18T01:26:38;12.60;99.90
72814;DHT22;60945;48.516;-2.768;2022-10-18T01:29:31;12.60;99.90
72814;DHT22;60945;48.516;-2.768;2022-10-18T01:32:09;12.60;99.90
72814;DHT22;60945;48.516;-2.768;2022-10-18T01:34:38;12.60;99.90
72814;DHT22;60945;48.516;-2.768;2022-10-18T01:37:07;12.50;99.90
72814;DHT22;60945;48.516;-2.768;2022-10-18T01:39:36;12.60;99.90
72814;DHT22;60945;48.516;-2.768;2022-10-18T01:42:05;12.50;99.90
72814;DHT22;60945;48.516;-2.768;2022-10-18T01:44:32;12.50;99.90
72814;DHT22;60945;48.516;-2.768;2022-10-18T01:47:00;12.50;99.90
72814;DHT22;60945;48.516;-2.768;2022-10-18T01:49:26;12.50;99.90
72814;DHT22;60945;48.516;-2.768;2022-10-18T01:51:52;12.60;99.90
72814;DHT22;60945;48.516;-2.768;2022-10-18T01:54:23;12.50;99.90
72814;DHT22;60945;48.516;-2.768;2022-10-18T01:59:23;12.50;99.90
72814;DHT22;60945;48.516;-2.768;2022-10-18T02:01:55;12.50;99.90
72814;DHT22;60945;48.516;-2.768;2022-10-18T02:07:16;12.40;99.90
72814;DHT22;60945;48.516;-2.768;2022-10-18T02:12:42;12.50;99.90
72814;DHT22;60945;48.516;-2.768;2022-10-18T02:15:11;12.50;99.90
72814;DHT22;60945;48.516;-2.768;2022-10-18T02:17:38;12.40;99.90
72814;DHT22;60945;48.516;-2.768;2022-10-18T02:20:07;12.40;99.90
72814;DHT22;60945;48.516;-2.768;2022-10-18T02:22:34;12.40;99.90
72814;DHT22;60945;48.516;-2.768;2022-10-18T02:25:04;12.50;99.90
72814;DHT22;60945;48.516;-2.768;2022-10-18T02:27:31;12.50;99.90
72814;DHT22;60945;48.516;-2.768;2022-10-18T02:29:57;12.60;99.90
72814;DHT22;60945;48.516;-2.768;2022-10-18T02:32:48;12.60;99.90
72814;DHT22;60945;48.516;-2.768;2022-10-18T02:35:22;12.60;99.90
72814;DHT22;60945;48.516;-2.768;2022-10-18T02:37:49;12.60;99.90
72814;DHT22;60945;48.516;-2.768;2022-10-18T02:40:17;12.60;99.90
72814;DHT22;60945;48.516;-2.768;2022-10-18T02:42:49;12.70;99.90
72814;DHT22;60945;48.516;-2.768;2022-10-18T02:45:16;12.70;99.90
72814;DHT22;60945;48.516;-2.768;2022-10-18T02:47:41;12.80;99.90
72814;DHT22;60945;48.516;-2.768;2022-10-18T02:50:07;12.70;99.90
72814;DHT22;60945;48.516;-2.768;2022-10-18T02:52:33;12.80;99.90
72814;DHT22;60945;48.516;-2.768;2022-10-18T02:54:59;12.90;99.90
72814;DHT22;60945;48.516;-2.768;2022-10-18T02:57:26;12.90;99.90
72814;DHT22;60945;48.516;-2.768;2022-10-18T02:59:52;13.00;99.90
72814;DHT22;60945;48.516;-2.768;2022-10-18T03:02:17;13.00;99.90
72814;DHT22;60945;48.516;-2.768;2022-10-18T03:04:43;13.00;99.90
72814;DHT22;60945;48.516;-2.768;2022-10-18T03:07:08;13.00;99.90
72814;DHT22;60945;48.516;-2.768;2022-10-18T03:09:34;13.10;99.90
72814;DHT22;60945;48.516;-2.768;2022-10-18T03:12:00;13.10;99.90
72814;DHT22;60945;48.516;-2.768;2022-10-18T03:14:25;13.10;99.90
72814;DHT22;60945;48.516;-2.768;2022-10-18T03:16:51;13.10;99.90
72814;DHT22;60945;48.516;-2.768;2022-10-18T03:19:16;13.10;99.90
72814;DHT22;60945;48.516;-2.768;2022-10-18T03:21:42;13.00;99.90
72814;DHT22;60945;48.516;-2.768;2022-10-18T03:24:08;13.00;99.90
72814;DHT22;60945;48.516;-2.768;2022-10-18T03:26:33;13.10;99.90
72814;DHT22;60945;48.516;-2.768;2022-10-18T03:28:59;13.00;99.90
72814;DHT22;60945;48.516;-2.768;2022-10-18T03:31:25;12.90;99.90
72814;DHT22;60945;48.516;-2.768;2022-10-18T03:33:50;12.90;99.90
72814;DHT22;60945;48.516;-2.768;2022-10-18T03:36:16;12.80;99.90
72814;DHT22;60945;48.516;-2.768;2022-10-18T03:38:41;12.80;99.90
72814;DHT22;60945;48.516;-2.768;2022-10-18T03:41:07;12.80;99.90
72814;DHT22;60945;48.516;-2.768;2022-10-18T03:43:33;12.90;99.90
72814;DHT22;60945;48.516;-2.768;2022-10-18T03:45:59;12.90;99.90
72814;DHT22;60945;48.516;-2.768;2022-10-18T03:48:25;12.90;99.90
72814;DHT22;60945;48.516;-2.768;2022-10-18T03:50:51;12.90;99.90
72814;DHT22;60945;48.516;-2.768;2022-10-18T03:53:16;13.00;99.90
72814;DHT22;60945;48.516;-2.768;2022-10-18T03:55:42;13.00;99.90
72814;DHT22;60945;48.516;-2.768;2022-10-18T03:58:07;13.10;99.90
72814;DHT22;60945;48.516;-2.768;2022-10-18T04:00:33;13.20;99.90
72814;DHT22;60945;48.516;-2.768;2022-10-18T04:02:59;13.30;99.90
72814;DHT22;60945;48.516;-2.768;2022-10-18T04:05:24;13.30;99.90
72814;DHT22;60945;48.516;-2.768;2022-10-18T04:07:52;13.40;99.90
72814;DHT22;60945;48.516;-2.768;2022-10-18T04:10:19;13.50;99.90
72814;DHT22;60945;48.516;-2.768;2022-10-18T04:12:45;13.50;99.90
72814;DHT22;60945;48.516;-2.768;2022-10-18T04:15:10;13.60;99.90
72814;DHT22;60945;48.516;-2.768;2022-10-18T04:17:36;13.60;99.90
72814;DHT22;60945;48.516;-2.768;2022-10-18T04:20:02;13.70;99.90
72814;DHT22;60945;48.516;-2.768;2022-10-18T04:22:27;13.80;99.90
72814;DHT22;60945;48.516;-2.768;2022-10-18T04:24:53;13.80;99.90
72814;DHT22;60945;48.516;-2.768;2022-10-18T04:27:19;13.80;99.90
72814;DHT22;60945;48.516;-2.768;2022-10-18T04:29:44;13.80;99.90
72814;DHT22;60945;48.516;-2.768;2022-10-18T04:32:10;13.90;99.90
72814;DHT22;60945;48.516;-2.768;2022-10-18T04:34:35;13.90;99.90
72814;DHT22;60945;48.516;-2.768;2022-10-18T04:37:01;13.90;99.90
72814;DHT22;60945;48.516;-2.768;2022-10-18T04:39:27;14.00;99.90
72814;DHT22;60945;48.516;-2.768;2022-10-18T04:41:52;14.00;99.90
72814;DHT22;60945;48.516;-2.768;2022-10-18T04:44:18;14.00;99.90
72814;DHT22;60945;48.516;-2.768;2022-10-18T04:46:43;14.00;99.90
72814;DHT22;60945;48.516;-2.768;2022-10-18T04:49:09;14.10;99.90
72814;DHT22;60945;48.516;-2.768;2022-10-18T04:51:34;14.20;99.90
72814;DHT22;60945;48.516;-2.768;2022-10-18T04:54:00;14.20;99.90
72814;DHT22;60945;48.516;-2.768;2022-10-18T04:56:26;14.20;99.90
72814;DHT22;60945;48.516;-2.768;2022-10-18T04:58:51;14.20;99.90
72814;DHT22;60945;48.516;-2.768;2022-10-18T05:01:17;14.20;99.90
72814;DHT22;60945;48.516;-2.768;2022-10-18T05:03:43;14.30;99.90
72814;DHT22;60945;48.516;-2.768;2022-10-18T05:06:09;14.30;99.90
72814;DHT22;60945;48.516;-2.768;2022-10-18T05:08:35;14.40;99.90
72814;DHT22;60945;48.516;-2.768;2022-10-18T05:11:02;14.40;99.90
72814;DHT22;60945;48.516;-2.768;2022-10-18T05:13:28;14.40;99.90
72814;DHT22;60945;48.516;-2.768;2022-10-18T05:15:54;14.50;99.90
72814;DHT22;60945;48.516;-2.768;2022-10-18T05:18:20;14.50;99.90
72814;DHT22;60945;48.516;-2.768;2022-10-18T05:20:46;14.50;99.90
72814;DHT22;60945;48.516;-2.768;2022-10-18T05:23:12;14.50;99.90
72814;DHT22;60945;48.516;-2.768;2022-10-18T05:25:41;14.60;99.90
72814;DHT22;60945;48.516;-2.768;2022-10-18T05:28:07;14.60;99.90
72814;DHT22;60945;48.516;-2.768;2022-10-18T05:30:36;14.60;99.90
72814;DHT22;60945;48.516;-2.768;2022-10-18T05:33:01;14.60;99.90
72814;DHT22;60945;48.516;-2.768;2022-10-18T05:35:27;14.60;99.90
72814;DHT22;60945;48.516;-2.768;2022-10-18T05:37:52;14.60;99.90
72814;DHT22;60945;48.516;-2.768;2022-10-18T05:40:18;14.60;99.90
72814;DHT22;60945;48.516;-2.768;2022-10-18T05:42:44;14.60;99.90
72814;DHT22;60945;48.516;-2.768;2022-10-18T05:45:09;14.60;99.90
72814;DHT22;60945;48.516;-2.768;2022-10-18T05:47:35;14.60;99.90
72814;DHT22;60945;48.516;-2.768;2022-10-18T05:50:00;14.70;99.90
72814;DHT22;60945;48.516;-2.768;2022-10-18T05:52:26;14.70;99.90
72814;DHT22;60945;48.516;-2.768;2022-10-18T05:54:52;14.80;99.90
72814;DHT22;60945;48.516;-2.768;2022-10-18T05:57:17;14.80;99.90
72814;DHT22;60945;48.516;-2.768;2022-10-18T05:59:43;14.80;99.90
72814;DHT22;60945;48.516;-2.768;2022-10-18T06:02:11;14.90;99.90
72814;DHT22;60945;48.516;-2.768;2022-10-18T06:04:36;14.90;99.90
72814;DHT22;60945;48.516;-2.768;2022-10-18T06:07:06;14.80;99.90
72814;DHT22;60945;48.516;-2.768;2022-10-18T06:09:31;14.80;99.90
72814;DHT22;60945;48.516;-2.768;2022-10-18T06:11:57;14.90;99.90
72814;DHT22;60945;48.516;-2.768;2022-10-18T06:14:23;14.80;99.90
72814;DHT22;60945;48.516;-2.768;2022-10-18T06:16:48;14.80;99.90
72814;DHT22;60945;48.516;-2.768;2022-10-18T06:19:15;14.70;99.90
72814;DHT22;60945;48.516;-2.768;2022-10-18T06:21:42;14.70;99.90
72814;DHT22;60945;48.516;-2.768;2022-10-18T06:24:07;14.60;99.90
72814;DHT22;60945;48.516;-2.768;2022-10-18T06:26:33;14.60;99.90
72814;DHT22;60945;48.516;-2.768;2022-10-18T06:28:59;14.60;99.90
72814;DHT22;60945;48.516;-2.768;2022-10-18T06:31:24;14.60;99.90
72814;DHT22;60945;48.516;-2.768;2022-10-18T06:33:50;14.50;99.90
72814;DHT22;60945;48.516;-2.768;2022-10-18T06:36:17;14.50;99.90
72814;DHT22;60945;48.516;-2.768;2022-10-18T06:38:43;14.50;99.90
72814;DHT22;60945;48.516;-2.768;2022-10-18T06:41:10;14.50;99.90
72814;DHT22;60945;48.516;-2.768;2022-10-18T06:43:35;14.50;99.90
72814;DHT22;60945;48.516;-2.768;2022-10-18T06:46:03;14.60;99.90
72814;DHT22;60945;48.516;-2.768;2022-10-18T06:48:31;14.60;99.90
72814;DHT22;60945;48.516;-2.768;2022-10-18T06:50:59;14.60;99.90
72814;DHT22;60945;48.516;-2.768;2022-10-18T06:53:27;14.60;99.90
72814;DHT22;60945;48.516;-2.768;2022-10-18T06:55:59;14.60;99.90
72814;DHT22;60945;48.516;-2.768;2022-10-18T06:58:25;14.60;99.90
72814;DHT22;60945;48.516;-2.768;2022-10-18T07:00:50;14.60;99.90
72814;DHT22;60945;48.516;-2.768;2022-10-18T07:03:16;14.60;99.90
72814;DHT22;60945;48.516;-2.768;2022-10-18T07:05:41;14.60;99.90
72814;DHT22;60945;48.516;-2.768;2022-10-18T07:08:07;14.60;99.90
72814;DHT22;60945;48.516;-2.768;2022-10-18T07:10:33;14.60;99.90
72814;DHT22;60945;48.516;-2.768;2022-10-18T07:12:58;14.70;99.90
72814;DHT22;60945;48.516;-2.768;2022-10-18T07:15:24;14.70;99.90
72814;DHT22;60945;48.516;-2.768;2022-10-18T07:17:49;14.80;99.90
72814;DHT22;60945;48.516;-2.768;2022-10-18T07:20:15;14.80;99.90
72814;DHT22;60945;48.516;-2.768;2022-10-18T07:22:41;14.90;99.90
72814;DHT22;60945;48.516;-2.768;2022-10-18T07:25:07;14.90;99.90
72814;DHT22;60945;48.516;-2.768;2022-10-18T07:27:42;14.90;99.90
72814;DHT22;60945;48.516;-2.768;2022-10-18T07:30:09;15.00;99.90
72814;DHT22;60945;48.516;-2.768;2022-10-18T07:32:35;15.00;99.90
72814;DHT22;60945;48.516;-2.768;2022-10-18T07:35:02;15.10;99.90
72814;DHT22;60945;48.516;-2.768;2022-10-18T07:37:28;15.00;99.90
72814;DHT22;60945;48.516;-2.768;2022-10-18T07:39:54;15.10;99.90
72814;DHT22;60945;48.516;-2.768;2022-10-18T07:42:19;15.10;99.90
72814;DHT22;60945;48.516;-2.768;2022-10-18T07:44:48;15.10;99.90
72814;DHT22;60945;48.516;-2.768;2022-10-18T07:47:14;15.10;99.90
72814;DHT22;60945;48.516;-2.768;2022-10-18T07:49:39;15.10;99.90
72814;DHT22;60945;48.516;-2.768;2022-10-18T07:52:05;15.20;99.90
72814;DHT22;60945;48.516;-2.768;2022-10-18T07:54:30;15.20;99.90
72814;DHT22;60945;48.516;-2.768;2022-10-18T07:56:56;15.20;99.90
72814;DHT22;60945;48.516;-2.768;2022-10-18T07:59:22;15.30;99.90
72814;DHT22;60945;48.516;-2.768;2022-10-18T08:01:47;15.30;99.90
72814;DHT22;60945;48.516;-2.768;2022-10-18T08:04:13;15.30;99.90
72814;DHT22;60945;48.516;-2.768;2022-10-18T08:06:39;15.30;99.90
72814;DHT22;60945;48.516;-2.768;2022-10-18T08:09:04;15.30;99.90
72814;DHT22;60945;48.516;-2.768;2022-10-18T08:11:30;15.30;99.90
72814;DHT22;60945;48.516;-2.768;2022-10-18T08:13:56;15.30;99.90
72814;DHT22;60945;48.516;-2.768;2022-10-18T08:16:24;15.40;99.90
72814;DHT22;60945;48.516;-2.768;2022-10-18T08:18:50;15.40;99.90
72814;DHT22;60945;48.516;-2.768;2022-10-18T08:21:17;15.50;99.90
72814;DHT22;60945;48.516;-2.768;2022-10-18T08:23:46;15.60;99.90
72814;DHT22;60945;48.516;-2.768;2022-10-18T08:26:17;15.60;99.90
72814;DHT22;60945;48.516;-2.768;2022-10-18T08:28:43;15.80;99.60
72814;DHT22;60945;48.516;-2.768;2022-10-18T08:31:11;15.80;99.10
72814;DHT22;60945;48.516;-2.768;2022-10-18T08:33:37;15.90;98.40
72814;DHT22;60945;48.516;-2.768;2022-10-18T08:36:05;15.90;97.60
72814;DHT22;60945;48.516;-2.768;2022-10-18T08:38:32;16.00;97.30
72814;DHT22;60945;48.516;-2.768;2022-10-18T08:44:02;16.10;96.50
72814;DHT22;60945;48.516;-2.768;2022-10-18T08:46:30;16.10;96.20
72814;DHT22;60945;48.516;-2.768;2022-10-18T08:48:57;16.20;96.10
72814;DHT22;60945;48.516;-2.768;2022-10-18T08:51:42;16.20;96.00
72814;DHT22;60945;48.516;-2.768;2022-10-18T08:54:10;16.30;96.00
72814;DHT22;60945;48.516;-2.768;2022-10-18T08:56:38;16.20;95.30
72814;DHT22;60945;48.516;-2.768;2022-10-18T08:59:09;16.30;95.20
72814;DHT22;60945;48.516;-2.768;2022-10-18T09:04:36;16.30;94.00
72814;DHT22;60945;48.516;-2.768;2022-10-18T09:07:23;16.30;94.20
72814;DHT22;60945;48.516;-2.768;2022-10-18T09:20:57;16.60;92.80
72814;DHT22;60945;48.516;-2.768;2022-10-18T09:29:04;16.70;91.70
72814;DHT22;60945;48.516;-2.768;2022-10-18T09:31:43;16.70;91.50
72814;DHT22;60945;48.516;-2.768;2022-10-18T09:34:27;16.70;91.10
72814;DHT22;60945;48.516;-2.768;2022-10-18T09:36:55;16.70;90.90
72814;DHT22;60945;48.516;-2.768;2022-10-18T09:39:29;16.70;90.90
72814;DHT22;60945;48.516;-2.768;2022-10-18T09:42:00;16.90;90.70
72814;DHT22;60945;48.516;-2.768;2022-10-18T09:45:01;17.00;89.90
72814;DHT22;60945;48.516;-2.768;2022-10-18T09:47:44;17.00;89.50
72814;DHT22;60945;48.516;-2.768;2022-10-18T09:50:16;17.10;89.10
72814;DHT22;60945;48.516;-2.768;2022-10-18T09:53:07;17.20;89.00
72814;DHT22;60945;48.516;-2.768;2022-10-18T09:56:28;17.30;87.50
72814;DHT22;60945;48.516;-2.768;2022-10-18T09:58:39;17.20;87.60
72814;DHT22;60945;48.516;-2.768;2022-10-18T10:01:05;17.20;88.00
72814;DHT22;60945;48.516;-2.768;2022-10-18T10:03:32;17.10;88.40
72814;DHT22;60945;48.516;-2.768;2022-10-18T10:09:06;16.90;89.40
72814;DHT22;60945;48.516;-2.768;2022-10-18T10:11:36;17.00;89.70
72814;DHT22;60945;48.516;-2.768;2022-10-18T10:14:12;17.00;89.50
72814;DHT22;60945;48.516;-2.768;2022-10-18T10:16:51;17.20;89.50
72814;DHT22;60945;48.516;-2.768;2022-10-18T10:19:31;17.40;88.10
72814;DHT22;60945;48.516;-2.768;2022-10-18T10:22:05;17.50;87.20
72814;DHT22;60945;48.516;-2.768;2022-10-18T10:24:50;17.50;87.10
72814;DHT22;60945;48.516;-2.768;2022-10-18T10:27:42;17.40;86.90
72814;DHT22;60945;48.516;-2.768;2022-10-18T10:30:30;17.40;87.20
72814;DHT22;60945;48.516;-2.768;2022-10-18T10:32:56;17.50;87.10
72814;DHT22;60945;48.516;-2.768;2022-10-18T10:35:30;17.60;87.00
72814;DHT22;60945;48.516;-2.768;2022-10-18T10:37:56;17.60;86.80
72814;DHT22;60945;48.516;-2.768;2022-10-18T10:40:33;17.80;85.50
72814;DHT22;60945;48.516;-2.768;2022-10-18T10:46:11;18.00;84.60
72814;DHT22;60945;48.516;-2.768;2022-10-18T10:51:13;17.70;85.90
72814;DHT22;60945;48.516;-2.768;2022-10-18T10:53:48;17.60;86.30
72814;DHT22;60945;48.516;-2.768;2022-10-18T10:56:23;17.60;86.50
72814;DHT22;60945;48.516;-2.768;2022-10-18T10:58:50;17.60;86.70
72814;DHT22;60945;48.516;-2.768;2022-10-18T11:03:47;17.60;86.60
72814;DHT22;60945;48.516;-2.768;2022-10-18T11:06:41;17.70;86.90
72814;DHT22;60945;48.516;-2.768;2022-10-18T11:09:31;17.80;86.60
72814;DHT22;60945;48.516;-2.768;2022-10-18T11:14:43;18.00;85.60
72814;DHT22;60945;48.516;-2.768;2022-10-18T11:17:21;17.80;86.50
72814;DHT22;60945;48.516;-2.768;2022-10-18T11:20:09;17.80;86.70
72814;DHT22;60945;48.516;-2.768;2022-10-18T11:22:56;17.80;86.60
72814;DHT22;60945;48.516;-2.768;2022-10-18T11:28:25;17.90;86.40
72814;DHT22;60945;48.516;-2.768;2022-10-18T11:31:25;17.80;86.70
72814;DHT22;60945;48.516;-2.768;2022-10-18T11:39:38;18.00;86.00
72814;DHT22;60945;48.516;-2.768;2022-10-18T11:42:11;18.00;86.00
72814;DHT22;60945;48.516;-2.768;2022-10-18T11:49:58;18.00;85.90
72814;DHT22;60945;48.516;-2.768;2022-10-18T11:52:41;17.90;86.30
72814;DHT22;60945;48.516;-2.768;2022-10-18T11:58:06;17.90;87.10
72814;DHT22;60945;48.516;-2.768;2022-10-18T12:05:51;18.30;84.90
72814;DHT22;60945;48.516;-2.768;2022-10-18T12:08:39;18.30;84.40
72814;DHT22;60945;48.516;-2.768;2022-10-18T12:11:22;18.40;83.80
72814;DHT22;60945;48.516;-2.768;2022-10-18T12:14:02;18.30;84.30
72814;DHT22;60945;48.516;-2.768;2022-10-18T12:16:33;18.50;84.20
72814;DHT22;60945;48.516;-2.768;2022-10-18T12:19:07;18.90;82.70
72814;DHT22;60945;48.516;-2.768;2022-10-18T12:21:37;19.30;80.90
72814;DHT22;60945;48.516;-2.768;2022-10-18T12:24:07;19.30;80.20
72814;DHT22;60945;48.516;-2.768;2022-10-18T12:26:35;19.20;80.90
72814;DHT22;60945;48.516;-2.768;2022-10-18T12:29:38;19.00;81.40
72814;DHT22;60945;48.516;-2.768;2022-10-18T12:32:10;19.20;81.40
72814;DHT22;60945;48.516;-2.768;2022-10-18T12:34:52;19.20;80.40
72814;DHT22;60945;48.516;-2.768;2022-10-18T12:40:22;19.40;79.70
72814;DHT22;60945;48.516;-2.768;2022-10-18T12:42:50;19.50;79.90
72814;DHT22;60945;48.516;-2.768;2022-10-18T12:45:31;19.50;79.50
72814;DHT22;60945;48.516;-2.768;2022-10-18T12:48:14;19.90;78.30
72814;DHT22;60945;48.516;-2.768;2022-10-18T12:50:57;20.50;75.60
72814;DHT22;60945;48.516;-2.768;2022-10-18T12:53:25;20.70;74.10
72814;DHT22;60945;48.516;-2.768;2022-10-18T12:55:52;20.40;74.80
72814;DHT22;60945;48.516;-2.768;2022-10-18T12:58:23;19.90;76.80
72814;DHT22;60945;48.516;-2.768;2022-10-18T13:19:09;19.50;78.70
72814;DHT22;60945;48.516;-2.768;2022-10-18T13:21:53;19.60;78.80
72814;DHT22;60945;48.516;-2.768;2022-10-18T13:32:59;19.50;79.60
72814;DHT22;60945;48.516;-2.768;2022-10-18T13:41:24;19.90;78.40
72814;DHT22;60945;48.516;-2.768;2022-10-18T13:44:43;20.10;77.30
72814;DHT22;60945;48.516;-2.768;2022-10-18T13:54:58;20.70;74.50
72814;DHT22;60945;48.516;-2.768;2022-10-18T14:00:46;20.00;77.90
72814;DHT22;60945;48.516;-2.768;2022-10-18T14:06:15;20.30;76.70
72814;DHT22;60945;48.516;-2.768;2022-10-18T14:11:51;19.70;79.30
72814;DHT22;60945;48.516;-2.768;2022-10-18T14:22:46;19.50;80.50
72814;DHT22;60945;48.516;-2.768;2022-10-18T14:25:42;19.60;80.70
72814;DHT22;60945;48.516;-2.768;2022-10-18T14:28:17;19.40;81.00
72814;DHT22;60945;48.516;-2.768;2022-10-18T14:30:51;19.40;81.00
72814;DHT22;60945;48.516;-2.768;2022-10-18T14:36:06;19.60;80.40
72814;DHT22;60945;48.516;-2.768;2022-10-18T14:38:34;19.60;80.50
72814;DHT22;60945;48.516;-2.768;2022-10-18T14:41:16;19.40;81.30
72814;DHT22;60945;48.516;-2.768;2022-10-18T14:43:42;19.20;82.00
72814;DHT22;60945;48.516;-2.768;2022-10-18T14:48:53;19.00;83.20
72814;DHT22;60945;48.516;-2.768;2022-10-18T14:51:19;18.90;83.50
72814;DHT22;60945;48.516;-2.768;2022-10-18T14:53:46;18.90;83.60
72814;DHT22;60945;48.516;-2.768;2022-10-18T14:56:30;19.00;83.30
72814;DHT22;60945;48.516;-2.768;2022-10-18T14:58:58;19.10;83.20
72814;DHT22;60945;48.516;-2.768;2022-10-18T15:01:28;19.10;83.10
72814;DHT22;60945;48.516;-2.768;2022-10-18T15:03:59;19.00;83.40
72814;DHT22;60945;48.516;-2.768;2022-10-18T15:06:26;19.00;83.20
72814;DHT22;60945;48.516;-2.768;2022-10-18T15:08:56;18.90;83.80
72814;DHT22;60945;48.516;-2.768;2022-10-18T15:11:24;18.90;84.10
72814;DHT22;60945;48.516;-2.768;2022-10-18T15:13:58;18.80;84.50
72814;DHT22;60945;48.516;-2.768;2022-10-18T15:16:27;18.80;84.80
72814;DHT22;60945;48.516;-2.768;2022-10-18T15:19:24;18.80;84.70
72814;DHT22;60945;48.516;-2.768;2022-10-18T15:29:37;18.70;85.00
72814;DHT22;60945;48.516;-2.768;2022-10-18T15:32:20;18.80;85.40
72814;DHT22;60945;48.516;-2.768;2022-10-18T15:34:48;18.80;85.10
72814;DHT22;60945;48.516;-2.768;2022-10-18T15:37:29;18.80;85.20
72814;DHT22;60945;48.516;-2.768;2022-10-18T15:42:49;18.80;85.40
72814;DHT22;60945;48.516;-2.768;2022-10-18T15:50:40;18.80;85.60
72814;DHT22;60945;48.516;-2.768;2022-10-18T15:53:22;18.80;85.70
72814;DHT22;60945;48.516;-2.768;2022-10-18T15:58:21;18.80;85.70
72814;DHT22;60945;48.516;-2.768;2022-10-18T16:00:48;18.80;85.90
72814;DHT22;60945;48.516;-2.768;2022-10-18T16:03:15;18.80;85.90
72814;DHT22;60945;48.516;-2.768;2022-10-18T16:05:41;18.70;86.00
72814;DHT22;60945;48.516;-2.768;2022-10-18T16:08:21;18.80;86.10
72814;DHT22;60945;48.516;-2.768;2022-10-18T16:10:47;18.70;86.20
72814;DHT22;60945;48.516;-2.768;2022-10-18T16:13:13;18.70;86.50
72814;DHT22;60945;48.516;-2.768;2022-10-18T16:15:39;18.70;86.70
72814;DHT22;60945;48.516;-2.768;2022-10-18T16:18:04;18.70;86.70
72814;DHT22;60945;48.516;-2.768;2022-10-18T16:20:30;18.70;87.00
72814;DHT22;60945;48.516;-2.768;2022-10-18T16:22:55;18.70;87.00
72814;DHT22;60945;48.516;-2.768;2022-10-18T16:25:21;18.60;87.10
72814;DHT22;60945;48.516;-2.768;2022-10-18T16:27:47;18.70;87.20
72814;DHT22;60945;48.516;-2.768;2022-10-18T16:30:15;18.60;87.50
72814;DHT22;60945;48.516;-2.768;2022-10-18T16:32:42;18.60;87.50
72814;DHT22;60945;48.516;-2.768;2022-10-18T16:35:08;18.60;87.60
72814;DHT22;60945;48.516;-2.768;2022-10-18T16:37:35;18.60;87.80
72814;DHT22;60945;48.516;-2.768;2022-10-18T16:40:21;18.60;87.70
72814;DHT22;60945;48.516;-2.768;2022-10-18T16:42:47;18.70;87.70
72814;DHT22;60945;48.516;-2.768;2022-10-18T16:45:13;18.70;87.60
72814;DHT22;60945;48.516;-2.768;2022-10-18T16:47:38;18.70;87.80
72814;DHT22;60945;48.516;-2.768;2022-10-18T16:50:04;18.60;88.00
72814;DHT22;60945;48.516;-2.768;2022-10-18T16:52:33;18.60;88.30
72814;DHT22;60945;48.516;-2.768;2022-10-18T16:54:59;18.60;88.40
72814;DHT22;60945;48.516;-2.768;2022-10-18T16:57:24;18.60;88.70
72814;DHT22;60945;48.516;-2.768;2022-10-18T16:59:50;18.50;88.80
72814;DHT22;60945;48.516;-2.768;2022-10-18T17:02:15;18.50;88.90
72814;DHT22;60945;48.516;-2.768;2022-10-18T17:04:41;18.50;89.20
72814;DHT22;60945;48.516;-2.768;2022-10-18T17:07:11;18.50;89.40
72814;DHT22;60945;48.516;-2.768;2022-10-18T17:09:41;18.40;89.50
72814;DHT22;60945;48.516;-2.768;2022-10-18T17:12:06;18.40;89.90
72814;DHT22;60945;48.516;-2.768;2022-10-18T17:14:32;18.40;89.80
72814;DHT22;60945;48.516;-2.768;2022-10-18T17:17:00;18.40;90.00
72814;DHT22;60945;48.516;-2.768;2022-10-18T17:19:26;18.40;90.10
72814;DHT22;60945;48.516;-2.768;2022-10-18T17:21:51;18.40;90.10
72814;DHT22;60945;48.516;-2.768;2022-10-18T17:24:17;18.30;90.40
72814;DHT22;60945;48.516;-2.768;2022-10-18T17:26:43;18.30;90.60
72814;DHT22;60945;48.516;-2.768;2022-10-18T17:29:08;18.30;90.80
72814;DHT22;60945;48.516;-2.768;2022-10-18T17:31:34;18.30;91.00
72814;DHT22;60945;48.516;-2.768;2022-10-18T17:34:00;18.30;91.20
72814;DHT22;60945;48.516;-2.768;2022-10-18T17:36:25;18.30;91.40
72814;DHT22;60945;48.516;-2.768;2022-10-18T17:38:53;18.30;91.50
72814;DHT22;60945;48.516;-2.768;2022-10-18T17:41:19;18.20;91.50
72814;DHT22;60945;48.516;-2.768;2022-10-18T17:43:45;18.20;91.80
72814;DHT22;60945;48.516;-2.768;2022-10-18T17:46:12;18.10;92.30
72814;DHT22;60945;48.516;-2.768;2022-10-18T17:48:39;18.00;92.80
72814;DHT22;60945;48.516;-2.768;2022-10-18T17:51:07;18.00;93.30
72814;DHT22;60945;48.516;-2.768;2022-10-18T17:53:33;18.10;93.20
72814;DHT22;60945;48.516;-2.768;2022-10-18T17:56:00;18.10;93.10
72814;DHT22;60945;48.516;-2.768;2022-10-18T17:58:26;18.00;93.20
72814;DHT22;60945;48.516;-2.768;2022-10-18T18:00:52;18.00;93.30
72814;DHT22;60945;48.516;-2.768;2022-10-18T18:03:18;18.00;93.50
72814;DHT22;60945;48.516;-2.768;2022-10-18T18:05:44;18.10;93.60
72814;DHT22;60945;48.516;-2.768;2022-10-18T18:08:11;18.10;93.60
72814;DHT22;60945;48.516;-2.768;2022-10-18T18:10:37;18.10;93.50
72814;DHT22;60945;48.516;-2.768;2022-10-18T18:13:03;18.10;93.40
72814;DHT22;60945;48.516;-2.768;2022-10-18T18:15:28;18.10;93.40